Time;durP1;ratioP1;P1;durP2;ratioP2;P2;SDS_P1;SDS_P2;PMS_P1;PMS_P2;Temp;Humidity;BMP_temperature;BMP_pressure;BME280_temperature;BME280_humidity;BME280_pressure;Samples;Min_cycle;Max_cycle;Signal;HPM_P1;HPM_P2
2021/12/01 00:00:01;;;;;;;5.83;2.10;;;;;;;4.91;64.86;98790.56;6208271;22;96986;-75
2021/12/01 00:02:26;;;;;;;5.87;2.03;;;;;;;4.97;64.57;98789.50;6183140;22;96502;-75
2021/12/01 00:04:52;;;;;;;7.30;1.93;;;;;;;4.88;64.91;98792.41;6157921;22;96824;-75
2021/12/01 00:07:17;;;;;;;6.30;1.80;;;;;;;4.91;64.54;98805.31;6157417;22;100379;-75
2021/12/01 00:09:43;;;;;;;5.40;1.90;;;;;;;4.91;64.89;98811.34;6157555;22;97062;-75
2021/12/01 00:12:09;;;;;;;5.93;1.90;;;;;;;4.91;64.46;98821.75;6183939;22;96459;-75
2021/12/01 00:14:35;;;;;;;6.40;1.73;;;;;;;4.92;64.68;98828.69;6183067;22;96635;-75
2021/12/01 00:17:01;;;;;;;5.47;1.67;;;;;;;4.94;64.12;98834.66;6184240;22;97127;-75
2021/12/01 00:19:29;;;;;;;6.93;1.93;;;;;;;4.92;64.33;98838.25;6182754;22;97040;-75
2021/12/01 00:21:55;;;;;;;4.30;1.63;;;;;;;4.89;64.07;98846.16;6184488;22;96305;-75
2021/12/01 00:24:21;;;;;;;4.77;1.40;;;;;;;4.94;64.38;98852.00;6182915;22;96559;-75
2021/12/01 00:26:47;;;;;;;4.90;1.80;;;;;;;4.93;64.15;98853.78;6182561;22;97164;-75
2021/12/01 00:29:12;;;;;;;6.37;1.43;;;;;;;4.92;64.29;98861.63;6183109;22;99894;-75
2021/12/01 00:31:38;;;;;;;5.70;1.60;;;;;;;4.95;64.12;98859.78;6182990;22;96488;-75
2021/12/01 00:34:04;;;;;;;8.00;1.60;;;;;;;4.98;64.05;98866.63;6184716;22;96722;-75
2021/12/01 00:36:30;;;;;;;9.07;2.17;;;;;;;5.01;63.92;98879.53;6182375;22;97463;-74
2021/12/01 00:38:55;;;;;;;4.03;1.27;;;;;;;4.98;64.33;98874.44;6182739;22;96731;-76
2021/12/01 00:41:22;;;;;;;4.20;1.50;;;;;;;4.94;64.10;98876.25;6182798;22;96764;-75
2021/12/01 00:43:49;;;;;;;4.30;1.63;;;;;;;4.93;64.07;98877.19;6183023;22;96681;-75
2021/12/01 00:49:05;;;;;;;2.17;1.03;;;;;;;4.93;64.20;98871.97;6153760;22;99282;-75
2021/12/01 00:51:31;;;;;;;2.70;1.33;;;;;;;4.98;63.87;98887.44;6132477;22;96572;-75
2021/12/01 00:53:56;;;;;;;3.03;1.27;;;;;;;4.95;63.92;98883.19;6183351;22;96701;-75
2021/12/01 00:56:22;;;;;;;5.07;1.63;;;;;;;4.91;64.16;98886.78;6182206;22;97355;-75
2021/12/01 00:58:47;;;;;;;4.47;1.10;;;;;;;4.94;64.44;98891.88;6131999;22;100316;-75
2021/12/01 01:01:13;;;;;;;3.67;1.70;;;;;;;4.94;64.00;98898.81;6183810;22;96355;-75
2021/12/01 01:03:39;;;;;;;6.50;1.70;;;;;;;4.98;63.79;98901.28;6157526;22;96701;-75
2021/12/01 01:06:05;;;;;;;3.87;1.30;;;;;;;4.98;63.64;98905.63;6182463;22;97289;-75
2021/12/01 01:08:30;;;;;;;2.40;1.30;;;;;;;4.98;63.65;98914.28;6182454;22;97633;-75
2021/12/01 01:16:25;;;;;;;3.87;1.37;;;;;;;4.98;63.84;98935.09;6182782;22;97470;-75
2021/12/01 01:19:03;;;;;;;4.27;1.10;;;;;;;4.98;63.70;98942.06;6160645;22;100666;-75
2021/12/01 01:21:36;;;;;;;3.80;1.53;;;;;;;4.99;63.38;98951.53;6157472;22;96559;-75
2021/12/01 01:24:03;;;;;;;3.53;1.73;;;;;;;4.93;63.87;98957.78;6182872;22;96651;-75
2021/12/01 01:26:29;;;;;;;3.43;1.23;;;;;;;4.97;63.31;98979.34;6181757;22;97915;-75
2021/12/01 01:28:55;;;;;;;4.17;1.17;;;;;;;4.98;63.53;98976.72;6182348;22;97203;-76
2021/12/01 01:31:22;;;;;;;5.63;1.53;;;;;;;5.02;63.49;98981.81;6182881;22;96468;-75
2021/12/01 01:33:48;;;;;;;7.60;1.40;;;;;;;4.99;63.58;98980.16;6184521;22;96620;-76
2021/12/01 01:36:14;;;;;;;5.07;1.43;;;;;;;4.99;63.38;98987.94;6182446;22;97128;-75
2021/12/01 01:38:41;;;;;;;5.67;1.73;;;;;;;4.94;63.58;98995.88;6182381;22;97076;-75
2021/12/01 01:41:08;;;;;;;3.73;1.20;;;;;;;5.01;63.67;98996.56;6182331;22;96821;-75
2021/12/01 01:43:35;;;;;;;2.73;1.40;;;;;;;4.95;63.70;99002.81;6183102;22;96633;-75
2021/12/01 01:46:01;;;;;;;4.90;1.80;;;;;;;5.00;63.26;99005.25;6157049;22;97870;-75
2021/12/01 01:48:33;;;;;;;4.67;1.70;;;;;;;4.97;63.37;99001.03;6182342;22;97541;-75
2021/12/01 01:51:03;;;;;;;3.47;1.50;;;;;;;4.96;63.59;99003.66;6182341;22;96505;-75
2021/12/01 01:53:30;;;;;;;2.53;1.20;;;;;;;5.03;63.66;99010.34;6182398;22;96812;-75
2021/12/01 01:55:59;;;;;;;4.37;1.50;;;;;;;4.91;63.59;99016.78;6183107;22;97479;-75
2021/12/01 01:58:25;;;;;;;3.63;1.43;;;;;;;4.95;63.67;99014.97;6156733;22;99947;-75
2021/12/01 02:01:06;;;;;;;4.07;1.50;;;;;;;4.94;63.41;99016.69;6132295;22;96559;-75
2021/12/01 02:03:42;;;;;;;3.07;1.37;;;;;;;4.96;63.58;99020.09;6182979;22;96754;-75
2021/12/01 02:06:09;;;;;;;5.17;1.53;;;;;;;4.98;63.49;99015.72;6182099;22;98778;-75
2021/12/01 02:08:37;;;;;;;2.60;1.30;;;;;;;4.95;63.48;99018.41;6157166;22;99814;-75
2021/12/01 02:11:06;;;;;;;4.63;1.20;;;;;;;5.03;63.40;99019.91;6182680;22;96483;-75
2021/12/01 02:13:32;;;;;;;2.50;1.30;;;;;;;4.95;63.36;99031.41;6131949;22;96582;-74
2021/12/01 02:15:58;;;;;;;5.30;1.50;;;;;;;4.95;63.32;99022.78;6181434;22;97296;-75
2021/12/01 02:18:25;;;;;;;4.43;1.70;;;;;;;5.01;63.30;99026.94;6131615;22;100384;-75
2021/12/01 02:21:16;;;;;;;4.80;1.80;;;;;;;5.04;62.95;99019.03;6182416;22;96444;-75
2021/12/01 02:23:48;;;;;;;4.60;1.30;;;;;;;5.05;62.74;99031.13;6182648;22;96869;-75
2021/12/01 02:26:16;;;;;;;7.10;2.00;;;;;;;4.89;62.95;99031.63;6181711;22;97550;-76
2021/12/01 02:28:45;;;;;;;4.27;1.73;;;;;;;4.97;62.92;99034.84;6181892;22;97329;-75
2021/12/01 02:31:11;;;;;;;17.10;1.90;;;;;;;5.00;62.64;99046.84;6131819;22;96502;-75
2021/12/01 02:33:37;;;;;;;3.87;1.40;;;;;;;4.98;62.85;99039.13;6182905;22;96624;-74
2021/12/01 02:36:03;;;;;;;2.93;1.17;;;;;;;5.01;62.87;99050.34;6182013;22;97282;-74
2021/12/01 02:38:29;;;;;;;5.30;1.50;;;;;;;4.98;63.06;99056.47;6157017;22;97403;-75
2021/12/01 02:40:55;;;;;;;4.53;1.50;;;;;;;5.03;62.92;99066.72;6181576;22;96301;-76
2021/12/01 02:43:23;;;;;;;4.63;1.40;;;;;;;4.96;63.23;99079.09;6157088;22;96778;-74
2021/12/01 02:45:53;;;;;;;3.53;1.23;;;;;;;5.04;62.66;99071.91;6181880;22;97511;-75
2021/12/01 02:48:20;;;;;;;4.23;1.47;;;;;;;5.01;63.16;99072.00;6182026;22;97619;-75
2021/12/01 02:50:45;;;;;;;4.57;1.63;;;;;;;4.94;62.93;99068.72;6182069;22;96424;-75
2021/12/01 02:53:11;;;;;;;2.57;1.40;;;;;;;4.90;63.10;99074.91;6157017;22;96416;-75
2021/12/01 02:55:45;;;;;;;2.80;1.20;;;;;;;4.87;63.01;99072.41;6182553;22;97466;-75
2021/12/01 02:58:11;;;;;;;4.43;1.77;;;;;;;4.78;63.37;99067.50;6157011;22;99945;-75
2021/12/01 03:00:36;;;;;;;3.47;1.30;;;;;;;4.84;63.00;99077.72;6156666;22;96305;-74
2021/12/01 03:03:04;;;;;;;2.50;1.20;;;;;;;4.90;63.15;99081.88;6182311;22;96649;-75
2021/12/01 03:05:29;;;;;;;3.30;1.37;;;;;;;4.91;62.96;99076.59;6181130;22;97822;-75
2021/12/01 03:07:55;;;;;;;6.43;1.40;;;;;;;4.90;62.77;99080.13;6181598;22;97090;-75
2021/12/01 03:10:21;;;;;;;3.50;1.47;;;;;;;4.88;62.92;99071.50;6183619;22;96377;-75
2021/12/01 03:12:46;;;;;;;6.80;1.47;;;;;;;4.85;62.64;99076.78;6183411;22;96423;-75
2021/12/01 03:15:16;;;;;;;4.77;1.50;;;;;;;4.81;62.50;99076.97;6131322;22;100653;-75
2021/12/01 03:17:42;;;;;;;3.80;1.30;;;;;;;4.87;62.62;99082.81;6183084;22;97093;-75
2021/12/01 03:20:14;;;;;;;4.17;1.47;;;;;;;4.86;62.25;99082.84;6182006;22;96516;-75
2021/12/01 03:22:43;;;;;;;4.07;1.67;;;;;;;4.81;62.11;99077.81;6157323;22;96818;-75
2021/12/01 03:25:10;;;;;;;2.60;1.30;;;;;;;4.72;62.10;99081.53;6130038;22;99286;-75
2021/12/01 03:27:36;;;;;;;5.00;1.50;;;;;;;4.79;62.11;99077.00;6156205;22;99834;-74
2021/12/01 03:30:05;;;;;;;2.20;1.23;;;;;;;4.74;62.05;99064.16;6156189;22;96381;-75
2021/12/01 03:32:30;;;;;;;3.90;1.10;;;;;;;4.72;62.19;99070.28;6181858;22;96668;-75
2021/12/01 03:34:57;;;;;;;2.97;1.17;;;;;;;4.68;62.01;99066.06;6183123;22;97400;-76
2021/12/01 03:37:23;;;;;;;3.27;1.00;;;;;;;4.57;62.16;99076.78;6182053;22;97135;-75
2021/12/01 03:39:49;;;;;;;3.40;1.20;;;;;;;4.59;62.10;99068.94;6182877;22;96621;-75
2021/12/01 03:42:14;;;;;;;3.80;1.37;;;;;;;4.58;62.51;99075.88;6183259;22;96727;-75
2021/12/01 03:44:40;;;;;;;7.30;2.00;;;;;;;4.60;62.11;99060.25;6184361;22;97226;-75
2021/12/01 03:47:05;;;;;;;4.17;1.33;;;;;;;4.62;62.18;99051.50;6183364;22;96971;-75
2021/12/01 03:49:31;;;;;;;5.63;1.70;;;;;;;4.49;62.49;99050.16;6183412;22;96490;-75
2021/12/01 03:51:57;;;;;;;5.57;1.70;;;;;;;4.52;62.65;99037.09;6184789;22;97004;-75
2021/12/01 03:54:22;;;;;;;3.50;1.53;;;;;;;4.45;62.36;99045.94;6157016;22;100227;-75
2021/12/01 03:56:48;;;;;;;6.00;2.00;;;;;;;4.44;62.67;99036.44;6157254;22;97724;-75
2021/12/01 03:59:13;;;;;;;5.57;2.37;;;;;;;4.40;62.60;99046.09;6157909;22;96336;-75
2021/12/01 04:01:39;;;;;;;8.13;3.20;;;;;;;4.37;62.79;99045.34;6157841;22;96675;-74
2021/12/01 04:04:05;;;;;;;10.87;3.10;;;;;;;4.33;62.99;99047.16;6157489;22;100064;-75
2021/12/01 04:06:30;;;;;;;10.97;3.33;;;;;;;4.27;63.04;99048.19;6157675;22;97033;-75
2021/12/01 04:08:57;;;;;;;8.03;3.07;;;;;;;4.27;63.12;99044.72;6183270;22;96324;-75
2021/12/01 04:11:22;;;;;;;8.87;2.80;;;;;;;4.23;63.47;99038.78;6158142;22;96498;-74
2021/12/01 04:13:48;;;;;;;7.40;2.93;;;;;;;4.27;63.41;99044.72;6182748;22;97804;-75
2021/12/01 04:16:14;;;;;;;6.93;2.57;;;;;;;4.22;63.15;99039.69;6182852;22;97251;-75
2021/12/01 04:18:40;;;;;;;4.90;2.07;;;;;;;4.24;63.44;99037.88;6182566;22;96472;-74
2021/12/01 04:21:06;;;;;;;9.53;2.27;;;;;;;4.24;63.47;99034.44;6183186;22;96683;-75
2021/12/01 04:23:34;;;;;;;6.87;1.93;;;;;;;4.17;64.10;99033.75;6157455;22;97488;-75
2021/12/01 04:26:01;;;;;;;8.77;2.87;;;;;;;4.27;63.51;99023.94;6182522;22;97131;-75
2021/12/01 04:28:26;;;;;;;7.13;2.43;;;;;;;4.28;63.51;99017.88;6184643;22;96308;-75
2021/12/01 04:30:52;;;;;;;6.97;2.40;;;;;;;4.24;63.47;99018.84;6183051;22;96798;-75
2021/12/01 04:33:17;;;;;;;8.10;2.70;;;;;;;4.20;63.33;99002.50;6132305;22;100518;-75
2021/12/01 04:35:44;;;;;;;6.57;2.80;;;;;;;4.16;63.66;99005.22;6183039;22;96888;-74
2021/12/01 04:38:10;;;;;;;5.93;2.07;;;;;;;4.17;63.85;99012.97;6132688;22;96482;-75
2021/12/01 04:40:36;;;;;;;6.53;2.33;;;;;;;4.12;64.00;99019.19;6183048;22;96641;-75
2021/12/01 04:43:02;;;;;;;5.97;2.20;;;;;;;4.03;64.38;99010.78;6182045;22;97511;-75
2021/12/01 04:45:29;;;;;;;7.33;2.83;;;;;;;4.04;64.49;99009.91;6182670;22;96984;-75
2021/12/01 04:47:55;;;;;;;12.77;3.30;;;;;;;3.96;64.47;99016.19;6182671;22;96307;-75
2021/12/01 04:50:24;;;;;;;11.37;3.20;;;;;;;3.92;64.80;99022.34;6183052;22;96701;-74
2021/12/01 04:52:51;;;;;;;7.47;2.60;;;;;;;3.86;64.83;99011.22;6157205;22;97515;-75
2021/12/01 04:55:17;;;;;;;11.43;3.50;;;;;;;3.88;64.92;99024.19;6181845;22;97764;-75
2021/12/01 04:57:44;;;;;;;8.63;3.00;;;;;;;3.90;64.88;99004.22;6182726;22;96370;-75
2021/12/01 05:00:13;;;;;;;8.83;3.30;;;;;;;4.15;64.31;99006.13;6183361;22;96311;-75
2021/12/01 05:02:39;;;;;;;12.20;2.73;;;;;;;4.19;64.00;98998.22;6182717;22;97305;-75
2021/12/01 05:05:05;;;;;;;11.03;3.10;;;;;;;4.14;64.26;98994.88;6157052;22;99778;-75
2021/12/01 05:07:31;;;;;;;9.27;3.80;;;;;;;4.06;64.08;98995.09;6182333;22;96448;-75
2021/12/01 05:09:57;;;;;;;11.10;3.47;;;;;;;3.94;64.25;99003.25;6182737;22;96746;-75
2021/12/01 05:12:22;;;;;;;8.97;3.40;;;;;;;3.90;64.71;99012.03;6182402;22;97413;-75
2021/12/01 05:14:48;;;;;;;11.23;3.20;;;;;;;3.82;65.04;99001.84;6156605;22;99377;-76
2021/12/01 05:17:14;;;;;;;9.07;3.40;;;;;;;3.99;64.42;99001.38;6182931;22;96388;-75
2021/12/01 05:19:39;;;;;;;7.20;2.87;;;;;;;3.89;64.81;99002.50;6182807;22;96652;-75
2021/12/01 05:22:05;;;;;;;13.77;3.57;;;;;;;3.64;65.85;99004.94;6182348;22;97917;-75
2021/12/01 05:24:31;;;;;;;12.47;3.13;;;;;;;3.63;65.78;99001.47;6182746;22;97717;-75
2021/12/01 05:26:57;;;;;;;9.97;2.83;;;;;;;3.55;66.46;98997.38;6182786;22;96515;-75
2021/12/01 05:29:24;;;;;;;15.03;3.80;;;;;;;3.39;66.60;98992.59;6182891;22;96636;-75
2021/12/01 05:31:50;;;;;;;11.17;3.43;;;;;;;3.23;67.47;98991.31;6181791;22;97872;-74
2021/12/01 05:34:16;;;;;;;9.00;3.73;;;;;;;3.40;67.15;98990.84;6182530;22;97495;-74
2021/12/01 05:36:42;;;;;;;8.40;3.33;;;;;;;3.53;66.92;99004.38;6156828;22;96457;-75
2021/12/01 05:39:08;;;;;;;8.07;3.33;;;;;;;3.47;66.96;98995.00;6182426;22;96737;-75
2021/12/01 05:41:33;;;;;;;10.40;4.30;;;;;;;3.49;66.91;98990.63;6157044;22;97735;-75
2021/12/01 05:43:59;;;;;;;14.97;3.53;;;;;;;3.42;67.03;98985.63;6156694;22;98135;-75
2021/12/01 05:46:27;;;;;;;14.50;3.53;;;;;;;3.28;67.60;98992.03;6157102;22;96363;-75
2021/12/01 05:48:53;;;;;;;8.43;4.17;;;;;;;3.24;68.01;98984.38;6184753;22;96654;-75
2021/12/01 05:51:19;;;;;;;14.90;4.70;;;;;;;3.14;68.16;98974.25;6182095;22;98657;-76
2021/12/01 05:53:45;;;;;;;15.57;5.37;;;;;;;3.21;68.20;98961.13;6157008;22;97118;-75
2021/12/01 05:56:11;;;;;;;12.97;5.40;;;;;;;3.26;68.18;98967.88;6181394;22;96508;-75
2021/12/01 05:58:37;;;;;;;18.23;5.70;;;;;;;3.17;68.60;98968.09;6182280;22;96749;-74
2021/12/01 06:01:03;;;;;;;12.57;5.33;;;;;;;3.13;68.42;98959.56;6155803;22;99282;-75
2021/12/01 06:03:28;;;;;;;12.90;5.23;;;;;;;3.22;68.21;98961.06;6182261;22;100276;-75
2021/12/01 06:05:54;;;;;;;13.70;5.03;;;;;;;3.20;68.85;98949.03;6157214;22;96392;-74
2021/12/01 06:08:20;;;;;;;12.80;5.53;;;;;;;3.26;68.48;98946.25;6182654;22;96728;-74
2021/12/01 06:10:45;;;;;;;13.47;5.23;;;;;;;3.20;68.71;98942.13;6182104;22;97284;-74
2021/12/01 06:13:15;;;;;;;14.73;5.13;;;;;;;3.19;68.61;98940.38;6132113;22;100292;-74
2021/12/01 06:15:41;;;;;;;16.13;5.60;;;;;;;3.18;68.90;98936.94;6182641;22;96443;-74
2021/12/01 06:18:07;;;;;;;17.50;5.80;;;;;;;3.24;68.84;98935.94;6182476;22;96708;-75
2021/12/01 06:20:32;;;;;;;15.27;5.60;;;;;;;3.35;67.95;98939.09;6181384;22;97337;-74
2021/12/01 06:22:58;;;;;;;13.97;5.00;;;;;;;3.32;68.05;98939.19;6181722;22;99565;-75
2021/12/01 06:25:24;;;;;;;15.37;5.43;;;;;;;3.34;68.17;98934.78;6181336;22;96433;-75
2021/12/01 06:27:49;;;;;;;18.63;5.73;;;;;;;3.35;68.05;98918.34;6156783;22;96718;-75
2021/12/01 06:30:15;;;;;;;17.10;5.83;;;;;;;3.43;67.65;98919.88;6156677;22;97471;-74
2021/12/01 06:32:40;;;;;;;17.60;6.57;;;;;;;3.38;67.88;98910.50;6156825;22;97069;-75
2021/12/01 06:35:06;;;;;;;14.93;4.63;;;;;;;3.35;67.77;98909.72;6207755;22;96374;-74
2021/12/01 06:37:32;;;;;;;13.60;5.37;;;;;;;3.40;67.49;98897.47;6156946;22;96876;-74
2021/12/01 06:39:58;;;;;;;16.10;5.67;;;;;;;3.35;67.89;98895.00;6181778;22;97482;-74
2021/12/01 06:42:23;;;;;;;15.07;5.53;;;;;;;3.26;68.19;98903.03;6156734;22;96931;-76
2021/12/01 06:44:49;;;;;;;16.13;5.30;;;;;;;3.51;67.24;98908.41;6181585;22;96605;-74
2021/12/01 06:47:16;;;;;;;17.90;4.43;;;;;;;3.47;67.16;98905.94;6182332;22;96763;-75
2021/12/01 06:49:45;;;;;;;18.67;5.53;;;;;;;3.42;66.98;98902.63;6181862;22;97306;-75
2021/12/01 06:52:12;;;;;;;15.97;4.80;;;;;;;3.43;66.73;98891.34;6181734;22;97395;-74
2021/12/01 06:54:39;;;;;;;16.20;5.23;;;;;;;3.39;66.84;98885.41;6156876;22;96646;-74
2021/12/01 06:57:04;;;;;;;17.10;5.70;;;;;;;3.39;66.88;98888.00;6156512;22;96766;-74
2021/12/01 06:59:30;;;;;;;23.63;6.37;;;;;;;3.46;66.38;98884.34;6131052;22;100469;-75
2021/12/01 07:01:56;;;;;;;14.90;5.43;;;;;;;3.36;66.32;98880.28;6156730;22;97507;-75
2021/12/01 07:04:21;;;;;;;15.53;5.27;;;;;;;3.39;66.31;98865.47;6182027;22;96486;-75
2021/12/01 07:06:47;;;;;;;22.93;7.17;;;;;;;3.34;66.51;98867.34;6156484;22;96815;-74
2021/12/01 07:09:18;;;;;;;22.13;7.53;;;;;;;3.30;66.55;98860.56;6182640;22;97696;-75
2021/12/01 07:11:47;;;;;;;23.15;6.60;;;;;;;3.40;65.74;98861.13;6157190;22;99519;-75
2021/12/01 07:14:13;;;;;;;17.37;6.70;;;;;;;3.39;66.15;98857.69;6183560;22;96324;-74
2021/12/01 07:16:39;;;;;;;18.13;6.20;;;;;;;3.41;65.56;98852.47;6158030;22;96605;-75
2021/12/01 07:19:06;;;;;;;18.27;6.10;;;;;;;3.35;65.98;98850.91;6132542;22;100040;-75
2021/12/01 07:21:31;;;;;;;21.30;6.63;;;;;;;3.35;65.99;98848.31;6182977;22;97318;-74
2021/12/01 07:23:57;;;;;;;19.40;6.23;;;;;;;3.33;66.16;98837.13;6183377;22;96661;-75
2021/12/01 07:26:23;;;;;;;18.40;6.10;;;;;;;3.36;65.89;98825.81;6185148;22;96647;-75
2021/12/01 07:28:48;;;;;;;24.73;6.30;;;;;;;3.40;65.88;98824.81;6184333;22;97345;-74
2021/12/01 07:31:14;;;;;;;19.43;5.83;;;;;;;3.47;65.61;98817.75;6182872;22;97540;-74
2021/12/01 07:33:39;;;;;;;15.03;5.73;;;;;;;3.54;65.71;98819.25;6182573;22;96533;-74
2021/12/01 07:36:05;;;;;;;16.83;5.60;;;;;;;3.56;65.79;98815.72;6184595;22;96549;-75
2021/12/01 07:38:31;;;;;;;18.50;6.03;;;;;;;3.61;65.80;98811.25;6157998;22;100135;-76
2021/12/01 07:40:57;;;;;;;21.07;6.60;;;;;;;3.67;66.36;98799.84;6184464;22;97139;-75
2021/12/01 07:43:22;;;;;;;17.93;6.13;;;;;;;3.66;66.37;98795.53;6133232;22;96497;-75
2021/12/01 07:45:48;;;;;;;13.43;5.70;;;;;;;3.67;66.61;98784.25;6158006;22;96736;-75
2021/12/01 07:48:13;;;;;;;17.23;5.93;;;;;;;3.61;66.96;98781.84;6182907;22;97774;-75
2021/12/01 07:50:39;;;;;;;20.47;6.60;;;;;;;3.66;66.93;98781.69;6157897;22;98269;-75
2021/12/01 07:53:05;;;;;;;24.27;7.47;;;;;;;3.74;66.97;98785.75;6157209;22;96347;-75
2021/12/01 07:55:31;;;;;;;20.83;7.37;;;;;;;3.75;67.25;98771.91;6182746;22;96551;-75
2021/12/01 07:57:56;;;;;;;18.77;7.10;;;;;;;3.63;67.63;98764.47;6182123;22;97519;-75
2021/12/01 08:00:22;;;;;;;24.70;7.70;;;;;;;3.66;67.72;98754.00;6157306;22;100427;-75
2021/12/01 08:02:48;;;;;;;17.73;6.67;;;;;;;3.67;67.99;98763.50;6157405;22;96447;-75
2021/12/01 08:05:13;;;;;;;25.37;7.37;;;;;;;3.65;68.47;98752.31;6183234;22;96474;-75
2021/12/01 08:07:39;;;;;;;18.00;7.27;;;;;;;3.65;68.39;98746.28;6182627;22;97487;-75
2021/12/01 08:10:06;;;;;;;21.00;6.73;;;;;;;3.67;68.84;98741.91;6184160;22;97468;-75
2021/12/01 08:12:35;;;;;;;19.63;7.50;;;;;;;3.64;69.07;98750.63;6132690;22;96497;-75
2021/12/01 08:15:05;;;;;;;20.67;8.07;;;;;;;3.65;68.63;98746.28;6133637;22;96715;-75
2021/12/01 08:17:31;;;;;;;25.17;8.17;;;;;;;3.65;68.78;98739.34;6157305;22;98655;-75
2021/12/01 08:19:58;;;;;;;25.47;7.80;;;;;;;3.57;69.21;98739.56;6182565;22;100290;-75
2021/12/01 08:22:27;;;;;;;30.47;8.53;;;;;;;3.62;69.29;98727.28;6183457;22;96565;-75
2021/12/01 08:24:54;;;;;;;23.00;9.07;;;;;;;3.57;69.34;98728.34;6182943;22;96635;-75
2021/12/01 08:27:21;;;;;;;19.63;8.77;;;;;;;3.64;69.49;98729.84;6182434;22;100323;-75
2021/12/01 08:29:46;;;;;;;31.27;11.77;;;;;;;3.69;69.59;98727.94;6184151;22;97107;-75
2021/12/01 08:32:12;;;;;;;30.80;11.67;;;;;;;3.75;69.38;98726.91;6182860;22;96461;-75
2021/12/01 08:34:38;;;;;;;24.60;9.77;;;;;;;3.78;69.60;98712.09;6158075;22;96695;-75
2021/12/01 08:37:07;;;;;;;30.37;11.10;;;;;;;3.77;69.77;98707.78;6181901;22;99639;-76
2021/12/01 08:39:33;;;;;;;23.17;9.63;;;;;;;3.86;69.55;98714.44;6158075;22;100750;-75
2021/12/01 08:41:59;;;;;;;27.63;10.57;;;;;;;3.94;69.45;98709.00;6157662;22;96497;-76
2021/12/01 08:44:24;;;;;;;27.60;10.93;;;;;;;3.93;69.79;98707.31;6157854;22;96757;-75
2021/12/01 08:46:50;;;;;;;33.10;15.43;;;;;;;3.90;70.05;98702.19;6181974;22;97492;-75
2021/12/01 08:49:15;;;;;;;40.27;15.57;;;;;;;3.89;70.54;98703.94;6157292;22;100164;-75
2021/12/01 08:51:41;;;;;;;40.83;15.63;;;;;;;3.91;70.87;98709.94;6182962;22;96468;-76
2021/12/01 08:54:07;;;;;;;42.33;18.00;;;;;;;4.05;70.51;98699.13;6157592;22;96544;-75
2021/12/01 08:56:33;;;;;;;60.77;23.03;;;;;;;4.07;70.52;98689.50;6157022;22;97277;-76
2021/12/01 08:58:58;;;;;;;55.87;20.03;;;;;;;4.09;71.00;98687.72;6182354;22;96357;-76
2021/12/01 09:01:24;;;;;;;19.70;8.40;;;;;;;4.13;70.73;98681.53;6157591;22;96409;-76
2021/12/01 09:03:49;;;;;;;33.50;14.97;;;;;;;4.16;70.99;98675.38;6158118;22;96729;-75
2021/12/01 09:06:16;;;;;;;20.03;8.63;;;;;;;4.16;71.24;98659.78;6182307;22;97636;-75
2021/12/01 09:08:42;;;;;;;21.30;9.67;;;;;;;4.26;71.02;98649.03;6182582;22;97423;-76
2021/12/01 09:11:07;;;;;;;15.70;7.10;;;;;;;4.30;71.07;98654.97;6183718;22;96285;-75
2021/12/01 09:13:35;;;;;;;14.93;6.63;;;;;;;4.31;70.95;98649.72;6132503;22;96794;-74
2021/12/01 09:16:03;;;;;;;22.53;7.30;;;;;;;4.36;71.14;98646.09;6182039;22;100379;-75
2021/12/01 09:18:29;;;;;;;18.40;7.27;;;;;;;4.38;70.99;98639.13;6157524;22;97009;-74
2021/12/01 09:20:57;;;;;;;15.57;8.03;;;;;;;4.42;71.11;98638.09;6182823;22;96330;-75
2021/12/01 09:23:23;;;;;;;14.60;6.03;;;;;;;4.38;71.32;98632.16;6184409;22;96648;-75
2021/12/01 09:25:49;;;;;;;15.13;6.10;;;;;;;4.46;71.24;98621.50;6131909;22;100758;-74
2021/12/01 09:28:18;;;;;;;17.83;6.80;;;;;;;4.47;71.34;98624.03;6157778;22;98687;-74
2021/12/01 09:30:45;;;;;;;24.23;9.33;;;;;;;4.50;71.75;98610.94;6157499;22;96403;-75
2021/12/01 09:33:10;;;;;;;16.70;8.50;;;;;;;4.44;72.23;98618.94;6157591;22;96899;-75
2021/12/01 09:35:36;;;;;;;18.63;8.30;;;;;;;4.47;72.24;98599.81;6181744;22;97291;-75
2021/12/01 09:38:02;;;;;;;13.60;6.33;;;;;;;4.51;71.93;98601.41;6156665;22;97538;-74
2021/12/01 09:40:28;;;;;;;9.60;5.83;;;;;;;4.57;72.00;98588.19;6157388;22;96605;-74
2021/12/01 09:42:55;;;;;;;13.73;7.30;;;;;;;4.55;72.40;98579.59;6182632;22;96669;-74
2021/12/01 09:45:22;;;;;;;15.50;8.23;;;;;;;4.57;72.79;98585.59;6182247;22;97744;-75
2021/12/01 09:47:50;;;;;;;11.37;5.87;;;;;;;4.61;72.50;98589.75;6156687;22;100589;-75
2021/12/01 09:50:16;;;;;;;14.93;6.20;;;;;;;4.68;72.44;98583.44;6157375;22;96351;-75
2021/12/01 09:52:42;;;;;;;12.00;5.77;;;;;;;4.64;73.18;98576.63;6157912;22;96659;-75
2021/12/01 09:55:11;;;;;;;15.23;6.27;;;;;;;4.65;73.06;98577.47;6180882;22;100760;-76
2021/12/01 09:57:58;;;;;;;13.90;7.00;;;;;;;4.67;73.59;98563.53;6157992;22;97293;-76
2021/12/01 10:00:23;;;;;;;9.03;5.17;;;;;;;4.87;73.06;98564.53;6181481;22;96492;-76
2021/12/01 10:02:49;;;;;;;10.77;6.23;;;;;;;4.89;72.78;98568.75;6157312;22;96675;-76
2021/12/01 10:05:49;;;;;;;9.90;5.47;;;;;;;4.90;73.17;98565.25;6180558;22;99282;-75
2021/12/01 10:08:21;;;;;;;8.27;4.30;;;;;;;5.03;72.46;98564.75;6181387;22;99929;-74
2021/12/01 10:10:47;;;;;;;10.25;6.13;;;;;;;5.11;72.94;98557.50;6182448;22;96374;-75
2021/12/01 10:13:12;;;;;;;9.37;5.47;;;;;;;5.11;72.43;98550.53;6156884;22;96797;-75
2021/12/01 10:15:38;;;;;;;8.27;3.67;;;;;;;5.09;72.28;98554.13;6183468;22;97457;-75
2021/12/01 10:18:15;;;;;;;10.40;5.60;;;;;;;5.18;73.01;98543.38;6182121;22;99949;-75
2021/12/01 10:20:41;;;;;;;7.67;4.90;;;;;;;5.24;73.10;98542.28;6157121;22;96579;-75
2021/12/01 10:23:08;;;;;;;8.20;4.47;;;;;;;5.31;73.14;98538.50;6182286;22;96760;-75
2021/12/01 10:25:34;;;;;;;8.67;4.70;;;;;;;5.23;72.88;98533.59;6181200;22;100636;-75
2021/12/01 10:28:00;;;;;;;5.87;3.33;;;;;;;5.34;73.05;98525.38;6181851;22;97609;-75
2021/12/01 10:30:44;;;;;;;7.03;3.67;;;;;;;5.43;72.72;98536.22;6182105;22;96408;-74
2021/12/01 10:33:13;;;;;;;11.30;4.67;;;;;;;5.39;72.94;98523.44;6132135;22;96843;-73
2021/12/01 10:35:39;;;;;;;8.30;4.30;;;;;;;5.82;75.74;98516.41;6184887;22;97884;-68
2021/12/01 10:38:07;;;;;;;10.13;4.47;;;;;;;5.99;73.02;98506.13;6185344;22;97243;-76
2021/12/01 10:40:33;;;;;;;10.60;5.70;;;;;;;5.95;72.37;98511.53;6195452;22;96386;-77
2021/12/01 10:42:59;;;;;;;7.93;4.17;;;;;;;5.96;71.95;98505.41;6145241;22;96462;-77
2021/12/01 10:45:37;;;;;;;9.43;4.47;;;;;;;5.86;72.26;98502.34;6169062;22;99132;-77
2021/12/01 10:48:05;;;;;;;8.77;4.17;;;;;;;5.94;72.13;98486.41;6170321;22;99200;-79
2021/12/01 10:50:32;;;;;;;14.73;5.97;;;;;;;5.78;73.21;98479.22;6169852;22;96433;-79
2021/12/01 10:53:09;;;;;;;21.53;7.87;;;;;;;5.75;73.31;98475.91;6194756;22;96804;-78
2021/12/01 10:55:41;;;;;;;8.33;4.10;;;;;;;5.80;72.91;98468.75;6169146;22;97838;-78
2021/12/01 10:58:07;;;;;;;21.43;8.30;;;;;;;5.92;73.25;98467.38;6140786;22;99145;-78
2021/12/01 11:00:42;;;;;;;10.23;4.50;;;;;;;5.92;73.28;98456.94;6166763;22;96447;-77
2021/12/01 11:03:18;;;;;;;5.23;2.83;;;;;;;5.86;73.00;98458.06;6191821;22;96485;-79
2021/12/01 11:05:49;;;;;;;13.03;5.70;;;;;;;5.97;72.79;98452.41;6191778;22;97896;-78
2021/12/01 11:08:25;;;;;;;6.40;3.17;;;;;;;6.05;72.29;98430.31;6140454;22;97867;-79
2021/12/01 11:11:13;;;;;;;19.97;9.40;;;;;;;5.92;73.05;98423.94;6139601;22;96489;-79
2021/12/01 11:13:43;;;;;;;16.43;6.80;;;;;;;5.84;73.24;98424.25;6188799;22;96344;-79
2021/12/01 11:16:11;;;;;;;6.30;3.30;;;;;;;5.98;73.14;98415.03;6162475;22;101037;-81
2021/12/01 11:18:39;;;;;;;8.60;4.40;;;;;;;6.02;73.21;98400.94;6138970;22;100515;-78
2021/12/01 11:21:10;;;;;;;9.43;5.20;;;;;;;5.99;73.00;98393.25;6139070;22;96422;-79
2021/12/01 11:23:38;;;;;;;7.27;4.03;;;;;;;5.99;73.18;98383.72;6165411;22;96700;-80
2021/12/01 11:26:08;;;;;;;5.27;2.40;;;;;;;5.96;73.25;98383.81;6189435;22;96717;-80
2021/12/01 11:28:40;;;;;;;9.37;3.80;;;;;;;5.86;72.90;98382.53;6187039;22;97000;-77
2021/12/01 11:31:12;;;;;;;5.27;2.57;;;;;;;5.95;73.39;98381.31;6160663;22;96335;-81
2021/12/01 11:33:43;;;;;;;;;;;;;;;5.82;73.30;98360.19;6185355;22;96715;-79
2021/12/01 11:36:11;;;;;;;7.23;2.97;;;;;;;5.83;73.82;98354.03;6183992;22;99415;-77
2021/12/01 11:38:44;;;;;;;4.73;2.90;;;;;;;5.92;73.03;98345.81;6160146;22;97022;-79
2021/12/01 11:41:10;;;;;;;7.50;3.07;;;;;;;6.00;73.21;98330.69;6133535;22;96493;-81
2021/12/01 11:43:37;;;;;;;9.20;2.80;;;;;;;6.01;73.36;98329.78;6160577;22;96668;-78